Terminal Aerodrome Forecast
Issued by NWS Glasgow, MT

Home | Current Version | Previous Version | Text Only | Print | Product List | Glossary On
Versions: 1 2 3 4 5 6 7 8 9 10 11 12 13
000
FTUS45 KGGW 042320
TAFGGW
TAF
KGGW 042320Z 0500/0524 06011KT P6SM VCSH BKN060
     FM050600 06015KT 6SM -SHRA BKN040
     FM051200 07012KT 6SM -SHRA BKN015
     FM051800 07010KT P6SM VCSH BKN015=

USA.gov is the U.S. government's official web portal to all federal, state and local government web resources and services.